EDT,Max TemperatureF,Mean TemperatureF,Min TemperatureF,Max Dew PointF,MeanDew PointF,Min DewpointF,Max Humidity, Mean Humidity, Min Humidity, Max Sea Level PressureIn, Mean Sea Level PressureIn, Min Sea Level PressureIn, Max VisibilityMiles, Mean VisibilityMiles, Min VisibilityMiles, Max Wind SpeedMPH, Mean Wind SpeedMPH, Max Gust SpeedMPH,PrecipitationIn, CloudCover, Events, WindDirDegrees
2013-10-1,82,70,58,60,57,54,93,66,39,30.14,30.09,30.05,10,10,10,13,4,17,0.00,1,,3
2013-10-2,87,73,59,63,60,56,90,63,35,30.15,30.11,30.07,10,10,10,13,5,16,0.00,1,,2
2013-10-3,85,73,61,67,64,59,93,69,44,30.15,30.11,30.08,10,9,6,14,5,18,0.00,3,Fog,55
2013-10-4,88,77,65,70,67,63,93,70,46,30.15,30.11,30.07,10,9,3,12,3,13,0.00,2,Fog,82
2013-10-5,88,78,67,70,66,61,100,73,46,30.13,30.09,30.04,10,7,0,14,4,17,0.00,2,Fog,82
2013-10-6,86,77,67,75,70,66,100,83,65,30.05,30.00,29.93,10,7,0,17,5,21,0.24,4,Fog-Rain,138
2013-10-7,83,79,74,75,72,70,94,82,69,29.92,29.87,29.81,10,9,3,18,5,26,1.08,7,Rain-Thunderstorm,137
2013-10-8,76,68,60,73,63,55,94,86,78,30.07,29.98,29.84,10,10,6,23,13,29,0.04,8,Rain,19
2013-10-9,77,68,59,60,57,53,84,71,58,30.10,30.06,30.03,10,10,10,22,12,26,0.00,4,,359
2013-10-10,79,68,57,61,57,53,87,66,45,30.06,30.01,29.96,10,10,10,20,8,26,0.00,1,,329
2013-10-11,83,73,63,64,60,59,90,70,49,30.02,29.96,29.92,10,10,10,12,5,16,0.00,4,,258
2013-10-12,85,76,66,67,63,61,87,69,51,30.05,30.00,29.94,10,10,9,8,2,10,0.00,5,,4
2013-10-13,77,72,67,67,64,63,90,77,64,30.14,30.10,30.04,10,10,10,15,8,20,T,7,,9
2013-10-14,77,72,67,65,64,62,87,78,69,30.12,30.09,30.06,10,10,10,17,11,22,T,7,,20
2013-10-15,76,70,63,62,59,56,87,71,54,30.11,30.06,30.01,10,10,10,17,8,22,0.00,5,,25
2013-10-16,76,70,63,63,62,61,93,79,64,30.04,30.01,29.97,10,10,10,12,5,14,0.00,4,,36
2013-10-17,84,72,60,67,63,58,97,74,51,30.00,29.95,29.90,10,10,7,13,5,18,0.00,2,Fog,210
2013-10-18,85,77,69,71,69,67,97,78,59,29.99,29.95,29.91,10,10,5,10,4,23,T,5,Rain,244
2013-10-19,84,76,68,72,68,57,97,78,58,29.96,29.92,29.87,10,8,3,12,6,17,T,6,Fog-Rain,265
2013-10-20,76,68,60,58,56,53,84,69,53,30.07,30.00,29.93,10,10,10,17,7,21,T,6,,27
2013-10-21,72,66,59,61,57,53,90,78,66,30.12,30.06,30.02,10,10,10,12,5,15,0.00,6,,36
2013-10-22,71,67,62,61,58,54,87,72,57,30.03,29.94,29.86,10,10,7,12,3,13,0.01,7,Rain,35
2013-10-23,74,63,51,61,51,36,97,62,27,30.03,29.84,29.78,10,9,0,24,10,31,T,4,Rain,286
2013-10-24,67,54,41,46,38,31,83,56,29,30.21,30.14,30.05,10,10,10,14,4,17,0.00,1,,340
2013-10-25,64,54,44,47,40,34,86,60,34,30.36,30.26,30.16,10,10,10,17,8,22,0.00,1,,358
2013-10-26,67,53,38,44,38,33,86,63,39,30.34,30.25,30.16,10,10,10,10,5,13,0.00,0,,348
2013-10-27,75,59,42,53,45,36,83,61,39,30.17,30.13,30.08,10,10,10,9,3,15,0.00,1,,241
2013-10-28,76,66,55,59,54,52,93,70,46,30.27,30.22,30.14,10,10,7,9,2,20,T,4,Fog-Rain,344
2013-10-29,79,65,51,59,54,50,96,69,42,30.33,30.28,30.25,10,7,0,10,3,13,0.00,2,Fog,28
2013-10-30,80,67,53,60,55,51,100,70,39,30.33,30.26,30.20,10,6,0,13,3,15,0.00,3,Fog,348
2013-10-31,83,69,54,66,60,53,93,74,54,30.21,30.12,30.00,10,9,3,18,6,24,0.00,4,Fog,169